createdAt,value
2018-05-11T00:02:07.786Z,74.50
2018-05-11T00:04:34.045Z,74.90
2018-05-11T00:07:00.445Z,75.10
2018-05-11T00:09:26.718Z,75.20
2018-05-11T00:11:53.706Z,75.40
2018-05-11T00:14:20.352Z,75.50
2018-05-11T00:16:46.578Z,75.60
2018-05-11T00:19:12.910Z,75.60
2018-05-11T00:21:39.198Z,75.50
2018-05-11T00:24:05.530Z,75.90
2018-05-11T00:26:31.797Z,75.80
2018-05-11T00:28:58.259Z,76.00
2018-05-11T00:31:24.509Z,75.70
2018-05-11T00:33:50.742Z,75.50
2018-05-11T00:36:17.029Z,75.80
2018-05-11T00:38:43.270Z,76.30
2018-05-11T00:41:09.538Z,76.50
2018-05-11T00:43:35.779Z,75.90
2018-05-11T00:46:02.043Z,75.90
2018-05-11T00:48:28.321Z,76.50
2018-05-11T00:50:54.570Z,76.40
2018-05-11T00:53:20.803Z,76.80
2018-05-11T00:55:48.253Z,77.50
2018-05-11T00:58:14.475Z,77.50
2018-05-11T01:00:40.761Z,77.80
2018-05-11T01:03:06.989Z,77.90
2018-05-11T01:05:33.486Z,77.50
2018-05-11T01:07:59.823Z,77.30
2018-05-11T01:10:28.323Z,77.70
2018-05-11T01:12:55.325Z,78.10
2018-05-11T01:15:21.614Z,78.10
2018-05-11T01:17:48.660Z,78.30
2018-05-11T01:20:16.678Z,78.60
2018-05-11T01:22:43.705Z,78.60
2018-05-11T01:25:09.954Z,79.20
2018-05-11T01:27:36.231Z,78.40
2018-05-11T01:30:02.531Z,78.90
2018-05-11T01:32:28.781Z,78.30
2018-05-11T01:34:55.015Z,78.50
2018-05-11T01:37:21.266Z,78.50
2018-05-11T01:39:47.589Z,78.90
2018-05-11T01:42:13.817Z,79.40
2018-05-11T01:44:40.044Z,79.80
2018-05-11T01:47:06.321Z,79.80
2018-05-11T01:49:32.587Z,80.00
2018-05-11T01:51:58.877Z,80.40
2018-05-11T01:54:25.146Z,80.60
2018-05-11T01:56:51.613Z,80.90
2018-05-11T01:59:17.870Z,80.90
2018-05-11T02:01:44.154Z,80.80
2018-05-11T02:04:11.329Z,80.30
2018-05-11T02:06:37.602Z,80.20
2018-05-11T02:09:04.804Z,80.30
2018-05-11T02:11:31.098Z,80.70
2018-05-11T02:13:57.357Z,81.00
2018-05-11T02:16:23.674Z,81.60
2018-05-11T02:18:49.942Z,81.90
2018-05-11T02:21:16.312Z,82.00
2018-05-11T02:23:42.554Z,82.00
2018-05-11T02:26:08.845Z,82.30
2018-05-11T02:28:35.345Z,82.30
2018-05-11T02:31:01.642Z,82.40
2018-05-11T02:33:27.974Z,82.30
2018-05-11T02:35:54.237Z,82.40
2018-05-11T02:38:20.522Z,82.60
2018-05-11T02:40:46.802Z,82.20
2018-05-11T02:43:13.192Z,82.70
2018-05-11T02:45:40.138Z,82.90
2018-05-11T02:48:06.458Z,82.90
2018-05-11T02:50:32.768Z,82.70
2018-05-11T02:52:59.041Z,82.80
2018-05-11T02:55:26.311Z,82.60
2018-05-11T02:57:52.605Z,82.40
2018-05-11T03:00:18.882Z,82.40
2018-05-11T03:02:45.185Z,82.40
2018-05-11T03:05:11.529Z,82.10
2018-05-11T03:07:38.582Z,82.90
2018-05-11T03:10:04.867Z,82.80
2018-05-11T03:12:31.211Z,82.90
2018-05-11T03:14:57.471Z,82.10
2018-05-11T03:17:23.727Z,82.30
2018-05-11T03:19:49.982Z,82.60
2018-05-11T03:22:16.302Z,82.40
2018-05-11T03:24:42.571Z,82.10
2018-05-11T03:27:09.330Z,81.90
2018-05-11T03:29:35.624Z,83.00
2018-05-11T03:32:01.883Z,81.80
2018-05-11T03:34:28.658Z,82.10
2018-05-11T03:36:54.921Z,82.00
2018-05-11T03:39:21.201Z,83.40
2018-05-11T03:41:47.455Z,83.60
2018-05-11T03:44:13.731Z,83.60
2018-05-11T03:46:39.973Z,83.80
2018-05-11T03:49:06.593Z,83.90
2018-05-11T03:51:32.858Z,84.10
2018-05-11T03:53:59.181Z,84.40
2018-05-11T03:56:25.434Z,84.50
2018-05-11T03:58:51.701Z,84.30
2018-05-11T04:01:30.095Z,84.20
2018-05-11T04:04:08.506Z,83.70
2018-05-11T04:06:47.882Z,83.60
2018-05-11T04:09:15.185Z,83.60
2018-05-11T04:11:41.478Z,84.30
2018-05-11T04:14:07.771Z,84.30
2018-05-11T04:16:34.054Z,84.30
2018-05-11T04:19:01.086Z,85.10
2018-05-11T04:21:27.378Z,85.00
2018-05-11T04:23:53.685Z,84.70
2018-05-11T04:26:19.965Z,84.70
2018-05-11T04:28:47.123Z,84.50
2018-05-11T04:31:13.381Z,84.60
2018-05-11T04:33:39.622Z,84.70
2018-05-11T04:36:05.900Z,85.30
2018-05-11T04:38:32.133Z,85.20
2018-05-11T04:40:58.397Z,85.20
2018-05-11T04:43:24.674Z,83.60
2018-05-11T04:45:51.933Z,83.50
2018-05-11T04:48:18.163Z,83.10
2018-05-11T04:50:45.137Z,82.90
2018-05-11T04:53:11.402Z,82.80
2018-05-11T04:55:37.670Z,82.70
2018-05-11T04:58:03.910Z,82.90
2018-05-11T05:00:30.205Z,82.80
2018-05-11T05:02:56.441Z,82.50
2018-05-11T05:05:22.753Z,82.30
2018-05-11T05:07:49.795Z,81.80
2018-05-11T05:10:16.078Z,81.80
2018-05-11T05:12:42.542Z,81.10
2018-05-11T05:15:08.810Z,80.40
2018-05-11T05:17:35.218Z,80.40
2018-05-11T05:20:01.480Z,79.80
2018-05-11T05:22:28.025Z,78.70
2018-05-11T05:24:54.297Z,79.30
2018-05-11T05:27:20.610Z,79.00
2018-05-11T05:29:47.573Z,77.90
2018-05-11T05:32:13.844Z,77.80
2018-05-11T05:34:40.094Z,77.80
2018-05-11T05:37:06.701Z,76.40
2018-05-11T05:39:32.950Z,76.90
2018-05-11T05:41:59.302Z,75.80
2018-05-11T05:44:25.540Z,76.00
2018-05-11T05:46:51.878Z,75.60
2018-05-11T05:49:18.133Z,75.30
2018-05-11T05:51:44.491Z,75.10
2018-05-11T05:54:10.725Z,76.00
2018-05-11T05:56:37.121Z,75.50
2018-05-11T05:59:03.388Z,75.80
2018-05-11T06:01:29.938Z,76.30
2018-05-11T06:03:56.198Z,76.90
2018-05-11T06:06:22.442Z,77.70
2018-05-11T06:08:48.669Z,77.10
2018-05-11T06:11:14.957Z,77.20
2018-05-11T06:13:41.265Z,76.70
2018-05-11T06:16:07.886Z,77.00
2018-05-11T06:18:34.130Z,76.40
2018-05-11T06:21:00.362Z,76.80
2018-05-11T06:23:26.721Z,77.40
2018-05-11T06:25:53.649Z,76.70
2018-05-11T06:28:19.926Z,76.60
2018-05-11T06:30:46.642Z,76.30
2018-05-11T06:33:13.258Z,76.40
2018-05-11T06:35:39.515Z,76.40
2018-05-11T06:38:05.782Z,75.50
2018-05-11T06:40:32.024Z,75.50
2018-05-11T06:42:58.282Z,75.30
2018-05-11T06:45:24.506Z,75.10
2018-05-11T06:47:51.198Z,75.00
2018-05-11T06:50:17.462Z,75.20
2018-05-11T06:52:43.716Z,74.30
2018-05-11T06:55:09.970Z,74.50
2018-05-11T06:57:36.209Z,74.60
2018-05-11T07:00:02.502Z,75.60
2018-05-11T07:02:28.771Z,75.10
2018-05-11T07:04:55.026Z,75.00
2018-05-11T07:07:22.056Z,76.00
2018-05-11T07:09:48.365Z,76.00
2018-05-11T07:12:14.590Z,75.20
2018-05-11T07:14:40.833Z,75.00
2018-05-11T07:17:07.366Z,75.50
2018-05-11T07:19:33.704Z,75.70
2018-05-11T07:22:00.817Z,75.00
2018-05-11T07:24:27.106Z,75.00
2018-05-11T07:26:54.944Z,74.60
2018-05-11T07:29:21.190Z,74.60
2018-05-11T07:31:47.422Z,75.10
2018-05-11T07:34:13.710Z,74.70
2018-05-11T07:36:41.489Z,74.40
2018-05-11T07:39:07.750Z,74.30
2018-05-11T07:41:34.281Z,73.20
2018-05-11T07:44:00.522Z,72.60
2018-05-11T07:46:27.590Z,73.10
2018-05-11T07:48:53.820Z,73.30
2018-05-11T07:51:21.594Z,71.40
2018-05-11T07:53:47.863Z,71.30
2018-05-11T07:56:14.131Z,71.50
2018-05-11T07:58:40.480Z,72.30
2018-05-11T08:01:06.761Z,72.80
2018-05-11T08:03:32.995Z,72.30
2018-05-11T08:05:59.258Z,72.10
2018-05-11T08:08:25.485Z,70.90
2018-05-11T08:10:51.822Z,71.10
2018-05-11T08:13:18.073Z,70.70
2018-05-11T08:15:44.433Z,70.50
2018-05-11T08:18:11.674Z,69.40
2018-05-11T08:20:38.661Z,70.80
2018-05-11T08:23:05.145Z,70.80
2018-05-11T08:25:31.434Z,71.70
2018-05-11T08:27:57.934Z,72.40
2018-05-11T08:30:24.230Z,72.10
2018-05-11T08:32:51.022Z,71.70
2018-05-11T08:35:17.271Z,72.40
2018-05-11T08:37:43.584Z,72.20
2018-05-11T08:40:09.884Z,71.30
2018-05-11T08:42:36.137Z,70.50
2018-05-11T08:45:02.393Z,68.90
2018-05-11T08:47:29.409Z,69.30
2018-05-11T08:49:55.682Z,68.70
2018-05-11T08:52:22.508Z,68.30
2018-05-11T08:54:48.839Z,66.50
2018-05-11T08:57:15.152Z,65.00
2018-05-11T08:59:42.166Z,63.20
2018-05-11T09:02:08.450Z,63.20
2018-05-11T09:04:35.426Z,62.50
2018-05-11T09:07:01.876Z,62.50
2018-05-11T09:09:28.255Z,61.60
2018-05-11T09:11:55.274Z,63.90
2018-05-11T09:14:21.943Z,63.70
2018-05-11T09:16:48.218Z,63.50
2018-05-11T09:19:14.447Z,64.20
2018-05-11T09:21:44.532Z,63.50
2018-05-11T09:24:11.531Z,61.60
2018-05-11T09:26:37.786Z,61.00
2018-05-11T09:29:04.036Z,62.00
2018-05-11T09:31:30.266Z,62.10
2018-05-11T09:33:56.495Z,62.70
2018-05-11T09:36:22.762Z,61.60
2018-05-11T09:38:49.010Z,61.70
2018-05-11T09:41:15.275Z,61.30
2018-05-11T09:43:41.766Z,61.70
2018-05-11T09:46:08.030Z,61.90
2018-05-11T09:48:34.299Z,61.00
2018-05-11T09:51:00.844Z,61.40
2018-05-11T09:53:27.098Z,60.00
2018-05-11T09:55:53.359Z,60.80
2018-05-11T09:58:19.606Z,60.40
2018-05-11T10:00:46.593Z,60.10
2018-05-11T10:03:12.834Z,60.00
2018-05-11T10:05:39.082Z,59.20
2018-05-11T10:08:05.339Z,58.70
2018-05-11T10:10:31.550Z,57.20
2018-05-11T10:12:57.794Z,57.10
2018-05-11T10:15:24.129Z,57.30
2018-05-11T10:17:50.367Z,56.20
2018-05-11T10:20:16.632Z,55.80
2018-05-11T10:22:42.886Z,55.90
2018-05-11T10:25:09.110Z,54.30
2018-05-11T10:27:35.649Z,55.00
2018-05-11T10:30:01.910Z,55.80
2018-05-11T10:32:28.185Z,54.50
2018-05-11T10:34:54.446Z,54.00
2018-05-11T10:37:20.689Z,52.90
2018-05-11T10:39:47.001Z,53.30
2018-05-11T10:42:13.878Z,54.40
2018-05-11T10:44:40.098Z,54.80
2018-05-11T10:47:06.342Z,53.30
2018-05-11T10:49:33.059Z,53.50
2018-05-11T10:51:59.285Z,53.00
2018-05-11T10:54:25.522Z,52.90
2018-05-11T10:56:51.806Z,52.00
2018-05-11T10:59:18.078Z,52.30
2018-05-11T11:01:44.329Z,50.40
2018-05-11T11:04:10.587Z,51.80
2018-05-11T11:06:36.837Z,51.40
2018-05-11T11:09:09.169Z,52.50
2018-05-11T11:11:36.382Z,50.30
2018-05-11T11:14:02.863Z,51.10
2018-05-11T11:16:30.165Z,50.20
2018-05-11T11:18:57.237Z,48.80
2018-05-11T11:21:23.990Z,48.80
2018-05-11T11:23:50.262Z,48.00
2018-05-11T11:26:16.506Z,48.90
2018-05-11T11:28:42.777Z,49.20
2018-05-11T11:31:08.990Z,47.40
2018-05-11T11:33:35.286Z,46.20
2018-05-11T11:36:01.529Z,46.00
2018-05-11T11:38:28.534Z,47.40
2018-05-11T11:40:54.981Z,47.00
2018-05-11T11:43:21.242Z,46.70
2018-05-11T11:45:47.470Z,45.30
2018-05-11T11:48:13.714Z,47.10
2018-05-11T11:50:39.958Z,46.50
2018-05-11T11:53:06.226Z,47.20
2018-05-11T11:55:32.475Z,46.60
2018-05-11T11:57:59.119Z,45.50
2018-05-11T12:00:25.337Z,45.80
2018-05-11T12:02:57.574Z,44.20
2018-05-11T12:05:23.831Z,43.60
2018-05-11T12:07:50.425Z,43.10
2018-05-11T12:10:17.034Z,42.40
2018-05-11T12:12:43.265Z,41.80
2018-05-11T12:15:09.542Z,41.10
2018-05-11T12:17:35.992Z,42.50
2018-05-11T12:20:02.272Z,42.80
2018-05-11T12:22:29.509Z,41.90
2018-05-11T12:24:55.787Z,41.90
2018-05-11T12:27:22.045Z,42.20
2018-05-11T12:29:48.316Z,42.60
2018-05-11T12:32:14.798Z,42.60
2018-05-11T12:34:41.045Z,42.60
2018-05-11T12:37:07.385Z,41.70
2018-05-11T12:39:33.648Z,41.00
2018-05-11T12:41:59.966Z,41.20
2018-05-11T12:44:26.378Z,38.40
2018-05-11T12:46:52.675Z,39.30
2018-05-11T12:49:19.283Z,40.20
2018-05-11T12:51:45.555Z,39.10
2018-05-11T12:54:11.817Z,38.00
2018-05-11T12:56:38.574Z,40.50
2018-05-11T12:59:04.880Z,38.20
2018-05-11T13:01:31.155Z,37.10
2018-05-11T13:03:58.019Z,39.50
2018-05-11T13:06:24.271Z,38.30
2018-05-11T13:08:50.521Z,38.20
2018-05-11T13:11:17.041Z,37.60
2018-05-11T13:13:43.251Z,37.00
2018-05-11T13:16:09.510Z,36.90
2018-05-11T13:18:35.738Z,38.00
2018-05-11T13:21:01.989Z,37.60
2018-05-11T13:23:28.953Z,38.10
2018-05-11T13:25:55.213Z,37.30
2018-05-11T13:28:22.198Z,35.80
2018-05-11T13:30:48.466Z,35.70
2018-05-11T13:33:14.739Z,34.10
2018-05-11T13:35:41.033Z,35.00
2018-05-11T13:38:07.702Z,35.60
2018-05-11T13:40:33.977Z,34.70
2018-05-11T13:43:00.211Z,34.30
2018-05-11T13:45:26.474Z,33.90
2018-05-11T13:47:52.723Z,33.80
2018-05-11T13:50:20.368Z,30.20
2018-05-11T13:52:46.666Z,30.10
2018-05-11T13:55:12.939Z,27.50
2018-05-11T13:57:39.182Z,26.60
2018-05-11T14:00:05.461Z,27.20
2018-05-11T14:02:31.685Z,28.30
2018-05-11T14:04:58.296Z,29.20
2018-05-11T14:07:25.814Z,30.00
2018-05-11T14:09:52.090Z,30.00
2018-05-11T14:12:19.070Z,25.20
2018-05-11T14:14:45.681Z,25.10
2018-05-11T14:17:11.925Z,24.30
2018-05-11T14:19:38.969Z,21.70
2018-05-11T14:22:05.845Z,21.70
2018-05-11T14:24:32.112Z,21.50
2018-05-11T14:26:58.382Z,20.00
2018-05-11T14:29:24.621Z,20.70
2018-05-11T14:31:51.001Z,21.10
2018-05-11T14:34:17.233Z,20.40
2018-05-11T14:36:43.534Z,21.70
2018-05-11T14:39:09.772Z,23.30
2018-05-11T14:41:36.653Z,24.80
2018-05-11T14:44:02.917Z,25.90
2018-05-11T14:46:29.255Z,25.40
2018-05-11T14:48:55.858Z,25.30
2018-05-11T14:51:22.148Z,27.40
2018-05-11T14:53:48.697Z,29.10
2018-05-11T14:56:15.186Z,29.10
2018-05-11T14:58:41.427Z,31.80
2018-05-11T15:01:07.696Z,33.50
2018-05-11T15:03:34.193Z,31.80
2018-05-11T15:06:00.455Z,31.80
2018-05-11T15:08:26.723Z,31.40
2018-05-11T15:10:53.054Z,31.50
2018-05-11T15:13:20.094Z,28.70
2018-05-11T15:15:46.341Z,28.70
2018-05-11T15:18:12.574Z,28.70
2018-05-11T15:20:39.304Z,28.90
2018-05-11T15:23:05.525Z,28.60
2018-05-11T15:25:32.322Z,28.40
2018-05-11T15:27:58.814Z,27.30
2018-05-11T15:30:25.067Z,25.30
2018-05-11T15:32:51.332Z,24.70
2018-05-11T15:35:17.853Z,25.20
2018-05-11T15:37:44.122Z,27.30
2018-05-11T15:40:10.350Z,29.70
2018-05-11T15:42:36.926Z,31.60
2018-05-11T15:45:03.207Z,32.00
2018-05-11T15:47:29.475Z,32.40
2018-05-11T15:49:56.226Z,33.40
2018-05-11T15:52:22.471Z,34.00
2018-05-11T15:54:48.714Z,34.20
2018-05-11T15:57:15.534Z,33.80
2018-05-11T15:59:41.917Z,35.00
2018-05-11T16:02:08.273Z,34.30
2018-05-11T16:04:35.093Z,34.20
2018-05-11T16:07:01.325Z,33.30
2018-05-11T16:09:27.569Z,32.10
2018-05-11T16:11:55.445Z,31.70
2018-05-11T16:14:21.982Z,31.60
2018-05-11T16:16:48.241Z,32.10
2018-05-11T16:19:14.481Z,30.80
2018-05-11T16:21:40.741Z,31.60
2018-05-11T16:24:07.004Z,31.60
2018-05-11T16:26:33.590Z,32.40
2018-05-11T16:28:59.829Z,32.20
2018-05-11T16:31:26.198Z,32.10
2018-05-11T16:33:52.829Z,32.80
2018-05-11T16:36:19.114Z,32.40
2018-05-11T16:38:45.360Z,33.50
2018-05-11T16:41:11.629Z,34.30
2018-05-11T16:43:37.909Z,33.90
2018-05-11T16:46:07.541Z,33.70
2018-05-11T16:48:34.513Z,28.70
2018-05-11T16:51:00.794Z,28.70
2018-05-11T16:53:27.109Z,26.80
2018-05-11T16:55:53.335Z,25.90
2018-05-11T16:58:19.618Z,26.10
2018-05-11T17:00:45.869Z,27.70
2018-05-11T17:03:12.138Z,30.00
2018-05-11T17:05:38.509Z,31.10
2018-05-11T17:08:05.923Z,30.00
2018-05-11T17:10:32.153Z,30.00
2018-05-11T17:12:58.405Z,31.80
2018-05-11T17:15:25.562Z,34.00
2018-05-11T17:17:51.822Z,34.00
2018-05-11T17:20:18.055Z,34.30
2018-05-11T17:22:44.358Z,35.00
2018-05-11T17:25:10.615Z,35.90
2018-05-11T17:27:36.898Z,35.90
2018-05-11T17:30:03.491Z,37.20
2018-05-11T17:32:29.701Z,36.90
2018-05-11T17:34:55.935Z,37.90
2018-05-11T17:37:22.772Z,37.80
2018-05-11T17:39:49.034Z,38.70
2018-05-11T17:42:17.072Z,39.00
2018-05-11T17:44:43.369Z,39.50
2018-05-11T17:47:10.376Z,39.80
2018-05-11T17:49:36.638Z,40.20
2018-05-11T17:52:03.538Z,40.40
2018-05-11T17:54:29.877Z,40.70
2018-05-11T17:56:56.946Z,40.70
2018-05-11T17:59:25.751Z,40.50
2018-05-11T18:01:52.447Z,40.60
2018-05-11T18:04:18.694Z,40.80
2018-05-11T18:06:45.087Z,41.50
2018-05-11T18:09:11.390Z,41.60
2018-05-11T18:11:37.622Z,41.60
2018-05-11T18:14:03.907Z,42.20
2018-05-11T18:16:30.178Z,42.30
2018-05-11T18:18:56.507Z,43.20
2018-05-11T18:21:23.454Z,44.10
2018-05-11T18:23:49.728Z,44.10
2018-05-11T18:26:15.990Z,44.00
2018-05-11T18:28:43.540Z,44.20
2018-05-11T18:31:09.878Z,44.20
2018-05-11T18:33:36.874Z,45.40
2018-05-11T18:36:03.154Z,45.30
2018-05-11T18:38:29.405Z,45.30
2018-05-11T18:40:56.431Z,45.60
2018-05-11T18:43:22.674Z,45.60
2018-05-11T18:45:49.634Z,46.50
2018-05-11T18:48:16.618Z,46.70
2018-05-11T18:50:43.884Z,46.70
2018-05-11T18:53:10.709Z,46.70
2018-05-11T18:55:36.657Z,47.30
2018-05-11T18:58:02.922Z,47.30
2018-05-11T19:00:30.036Z,47.80
2018-05-11T19:02:56.280Z,47.80
2018-05-11T19:05:22.774Z,48.40
2018-05-11T19:07:49.275Z,49.00
2018-05-11T19:10:15.532Z,49.50
2018-05-11T19:12:41.774Z,49.20
2018-05-11T19:15:08.026Z,49.10
2018-05-11T19:17:34.252Z,49.40
2018-05-11T19:20:00.762Z,50.40
2018-05-11T19:22:27.033Z,51.10
2018-05-11T19:24:53.279Z,52.20
2018-05-11T19:27:19.507Z,52.00
2018-05-11T19:29:45.767Z,51.40
2018-05-11T19:32:12.017Z,51.00
2018-05-11T19:34:38.334Z,50.80
2018-05-11T19:37:04.587Z,51.70
2018-05-11T19:39:31.392Z,52.20
2018-05-11T19:41:57.634Z,52.00
2018-05-11T19:44:23.906Z,52.20
2018-05-11T19:46:50.391Z,52.50
2018-05-11T19:49:17.404Z,53.40
2018-05-11T19:51:43.636Z,53.10
2018-05-11T19:54:09.907Z,52.70
2018-05-11T19:56:36.146Z,52.80
2018-05-11T19:59:03.172Z,53.10
2018-05-11T20:01:29.425Z,53.10
2018-05-11T20:03:55.763Z,52.60
2018-05-11T20:06:22.177Z,52.70
2018-05-11T20:08:48.430Z,52.20
2018-05-11T20:11:14.674Z,53.00
2018-05-11T20:13:40.975Z,52.60
2018-05-11T20:16:07.215Z,52.80
2018-05-11T20:18:33.714Z,53.10
2018-05-11T20:20:59.969Z,53.00
2018-05-11T20:23:26.228Z,53.70
2018-05-11T20:25:52.601Z,53.30
2018-05-11T20:28:18.842Z,53.30
2018-05-11T20:30:45.155Z,53.60
2018-05-11T20:33:11.394Z,54.50
2018-05-11T20:35:37.672Z,54.90
2018-05-11T20:38:04.562Z,54.90
2018-05-11T20:40:30.835Z,54.40
2018-05-11T20:42:57.066Z,55.40
2018-05-11T20:45:23.614Z,55.70
2018-05-11T20:47:49.861Z,56.00
2018-05-11T20:50:16.134Z,56.50
2018-05-11T20:52:42.906Z,57.10
2018-05-11T20:55:09.162Z,57.30
2018-05-11T20:57:35.702Z,57.30
2018-05-11T21:00:02.709Z,57.30
2018-05-11T21:02:28.961Z,57.30
2018-05-11T21:04:55.963Z,57.30
2018-05-11T21:07:22.209Z,57.20
2018-05-11T21:09:48.487Z,57.60
2018-05-11T21:12:15.287Z,56.50
2018-05-11T21:14:41.579Z,57.10
2018-05-11T21:17:08.219Z,57.20
2018-05-11T21:19:34.558Z,57.40
2018-05-11T21:22:01.306Z,57.30
2018-05-11T21:24:28.478Z,57.30
2018-05-11T21:26:54.737Z,57.30
2018-05-11T21:29:21.742Z,57.90
2018-05-11T21:31:48.015Z,57.80
2018-05-11T21:34:14.289Z,58.10
2018-05-11T21:36:40.517Z,59.70
2018-05-11T21:39:06.796Z,59.20
2018-05-11T21:41:33.102Z,59.00
2018-05-11T21:43:59.550Z,59.60
2018-05-11T21:46:25.794Z,59.30
2018-05-11T21:48:52.658Z,60.00
2018-05-11T21:51:18.936Z,59.80
2018-05-11T21:53:45.171Z,59.90
2018-05-11T21:56:11.434Z,60.40
2018-05-11T21:58:37.670Z,60.10
2018-05-11T22:01:04.741Z,60.60
2018-05-11T22:03:30.974Z,59.90
2018-05-11T22:05:57.748Z,60.10
2018-05-11T22:08:23.942Z,60.40
2018-05-11T22:10:50.921Z,60.70
2018-05-11T22:13:18.386Z,60.90
2018-05-11T22:15:44.753Z,61.00
2018-05-11T22:18:10.998Z,61.30
2018-05-11T22:20:37.246Z,61.30
2018-05-11T22:23:03.520Z,61.60
2018-05-11T22:25:29.795Z,61.70
2018-05-11T22:27:56.164Z,62.60
2018-05-11T22:30:22.583Z,62.30
2018-05-11T22:32:49.202Z,62.60
2018-05-11T22:35:15.467Z,62.90
2018-05-11T22:37:42.466Z,63.60
2018-05-11T22:40:09.474Z,63.60
2018-05-11T22:42:35.745Z,63.70
2018-05-11T22:45:02.015Z,63.40
2018-05-11T22:47:28.974Z,63.40
2018-05-11T22:49:55.197Z,63.80
2018-05-11T22:52:21.854Z,64.10
2018-05-11T22:54:48.100Z,63.60
2018-05-11T22:57:14.720Z,63.40
2018-05-11T22:59:40.946Z,64.20
2018-05-11T23:02:07.534Z,64.30
2018-05-11T23:04:33.770Z,64.30
2018-05-11T23:07:00.760Z,64.40
2018-05-11T23:09:26.998Z,63.60
2018-05-11T23:11:53.578Z,64.00
2018-05-11T23:14:19.829Z,64.30
2018-05-11T23:16:46.367Z,63.80
2018-05-11T23:19:12.606Z,64.80
2018-05-11T23:21:38.849Z,64.90
2018-05-11T23:24:05.102Z,64.50
2018-05-11T23:26:31.342Z,64.70
2018-05-11T23:28:57.653Z,64.60
2018-05-11T23:31:23.914Z,64.10
2018-05-11T23:33:50.145Z,64.60
2018-05-11T23:36:16.624Z,64.10
2018-05-11T23:38:42.860Z,64.10
2018-05-11T23:41:09.162Z,64.20
2018-05-11T23:43:35.401Z,64.60
2018-05-11T23:46:01.662Z,64.90
2018-05-11T23:48:28.202Z,64.70
2018-05-11T23:50:54.449Z,65.40
2018-05-11T23:53:21.455Z,66.10
2018-05-11T23:55:47.676Z,66.10
2018-05-11T23:58:14.450Z,66.40
